»·PEaware :: N72FA L08-KSBD

N72FA :: L08-KSBD

FLIGHT INFORMATION

Flight Status: Arrived
Operator: Privately registered:
United States
More flights under this callsign
Pilot: Fco Javier A. (25981)
Aircraft: CESSNA 172 SKYHAWK
(C172)
More flights by this aircraft type
Origin: L08 Borrego Valley
United States
Destination: KSBD San Bernardino Intl
United States
More flights between these airports :: More routes between these airports
Route:
File this flight plan on PilotEdge
Remarks:
Altitude:
(Current/Filed)
8,500ft
Speed:
(Current/Filed)
100kts
Departed: 03-Oct-19 09:45 AM
Arrived: 03-Oct-19 10:35 AM
Distance/Time
Traveled:
68nm/0:49
Distance/Time
To Go:
Arrived

Flight Plot

Page will automatically refresh every two minutes.


Map Options




Map Legend


Flown Route
Filed Route
Departure Airport
Arrival Airport
Navaid (VOR, NDB)
Fix

Horizontal Profiles

Position Reports

Time Latitude Longitude Heading Altitude Ground
Speed
03-Oct-19 09:29 33.257735 -116.325303 179 519ft 0kts
03-Oct-19 09:30 33.257735 -116.325303 179 519ft 0kts
03-Oct-19 09:31 33.257735 -116.325303 179 519ft 0kts
03-Oct-19 09:32 33.257735 -116.325303 179 519ft 0kts
03-Oct-19 09:33 33.257735 -116.325303 179 519ft 0kts
03-Oct-19 09:34 33.257735 -116.325303 179 519ft 0kts
03-Oct-19 09:35 33.257735 -116.325303 179 519ft 0kts
03-Oct-19 09:36 33.257735 -116.325303 179 519ft 0kts
03-Oct-19 09:37 33.257642 -116.324638 85 519ft 4kts
03-Oct-19 09:38 33.258088 -116.322550 35 519ft 10kts
03-Oct-19 09:39 33.258374 -116.318452 86 519ft 14kts
03-Oct-19 09:40 33.258429 -116.313511 90 522ft 16kts
03-Oct-19 09:41 33.258530 -116.312706 47 522ft 0kts
03-Oct-19 09:42 33.258530 -116.312706 47 522ft 0kts
03-Oct-19 09:43 33.259129 -116.313015 270 522ft 10kts
03-Oct-19 09:44 33.258938 -116.334878 282 864ft 80kts
03-Oct-19 09:45 33.275573 -116.350500 325 1464ft 77kts
03-Oct-19 09:46 33.295235 -116.364562 325 1958ft 90kts
03-Oct-19 09:47 33.315242 -116.380670 321 2583ft 86kts
03-Oct-19 09:48 33.334110 -116.398515 316 3145ft 86kts
03-Oct-19 09:49 33.355181 -116.412132 9 3652ft 97kts
03-Oct-19 09:50 33.352354 -116.388361 186 4139ft 98kts
03-Oct-19 09:51 33.353642 -116.406174 3 4620ft 98kts
03-Oct-19 09:52 33.352979 -116.381421 181 5077ft 99kts
03-Oct-19 09:53 33.352906 -116.399221 357 5515ft 101kts
03-Oct-19 09:54 33.355116 -116.372490 154 5955ft 101kts
03-Oct-19 09:55 33.347431 -116.388085 324 6319ft 95kts
03-Oct-19 09:56 33.371618 -116.401104 327 6720ft 95kts
03-Oct-19 09:57 33.395995 -116.414406 328 7075ft 96kts
03-Oct-19 09:58 33.419706 -116.429304 321 7404ft 96kts
03-Oct-19 09:59 33.442751 -116.445912 321 7716ft 97kts
03-Oct-19 10:00 33.466091 -116.462508 321 8006ft 98kts
03-Oct-19 10:01 33.489736 -116.479134 320 8278ft 98kts
03-Oct-19 10:02 33.513189 -116.496767 319 8482ft 104kts
03-Oct-19 10:03 33.539686 -116.517439 319 8485ft 119kts
03-Oct-19 10:04 33.567858 -116.539778 319 8488ft 122kts
03-Oct-19 10:05 33.596321 -116.562346 319 8492ft 122kts
03-Oct-19 10:06 33.624600 -116.585306 318 8497ft 122kts
03-Oct-19 10:07 33.652422 -116.608639 316 8502ft 121kts
03-Oct-19 10:08 33.679118 -116.633562 311 8506ft 120kts
03-Oct-19 10:09 33.703833 -116.660754 310 8510ft 120kts
03-Oct-19 10:10 33.727009 -116.689576 303 8510ft 119kts
03-Oct-19 10:11 33.747455 -116.720255 302 8510ft 116kts
03-Oct-19 10:12 33.766051 -116.748076 302 8509ft 98kts
03-Oct-19 10:13 33.783112 -116.773117 302 8512ft 94kts
03-Oct-19 10:14 33.799567 -116.797241 302 8516ft 92kts
03-Oct-19 10:15 33.815749 -116.821089 303 8521ft 91kts
03-Oct-19 10:16 33.831584 -116.844692 303 8526ft 90kts
03-Oct-19 10:17 33.847653 -116.868996 301 8364ft 99kts
03-Oct-19 10:18 33.871066 -116.897866 317 7649ft 122kts
03-Oct-19 10:19 33.894631 -116.926503 312 7110ft 120kts
03-Oct-19 10:20 33.919172 -116.953501 310 6607ft 117kts
03-Oct-19 10:21 33.939475 -116.984239 308 6128ft 115kts
03-Oct-19 10:22 33.957603 -117.015670 289 5509ft 113kts
03-Oct-19 10:23 33.964731 -117.052024 272 4789ft 111kts
03-Oct-19 10:24 33.967110 -117.088742 268 4104ft 109kts
03-Oct-19 10:25 33.969929 -117.124311 303 3423ft 106kts
03-Oct-19 10:26 33.993568 -117.142774 326 3005ft 98kts
03-Oct-19 10:27 34.014334 -117.163966 324 2803ft 95kts
03-Oct-19 10:28 34.035719 -117.183513 322 2581ft 95kts
03-Oct-19 10:29 34.057141 -117.202908 329 2373ft 95kts
03-Oct-19 10:30 34.079588 -117.220567 308 2243ft 96kts
03-Oct-19 10:31 34.074178 -117.250966 243 2110ft 97kts
03-Oct-19 10:32 34.081736 -117.271009 12 1549ft 81kts
03-Oct-19 10:33 34.091083 -117.248800 71 1090ft 65kts
03-Oct-19 10:34 34.094215 -117.241052 31 1101ft 0kts
03-Oct-19 10:35 34.094215 -117.241052 32 1101ft 0kts
03-Oct-19 10:36 34.094873 -117.240417 31 1102ft 16kts
03-Oct-19 10:37 34.097237 -117.234496 73 1120ft 14kts
03-Oct-19 10:38 34.098452 -117.230391 69 1131ft 16kts
03-Oct-19 10:39 34.101440 -117.224400 356 1147ft 0kts
03-Oct-19 10:40 34.101440 -117.224400 356 1147ft 0kts
03-Oct-19 10:41 34.101440 -117.224400 356 1147ft 0kts
03-Oct-19 10:42 34.101440 -117.224400 356 1147ft 0kts

Navigation Log

Ident Type
Flight plan parsing failed, navigation log unavailable